sensor_id;sensor_type;location;lat;lon;timestamp;pressure;altitude;pressure_sealevel;temperature;humidity
48390;BME280;34643;47.964;7.982;2023-03-20T00:02:28;96980.44;;;17.14;60.12
48390;BME280;34643;47.964;7.982;2023-03-20T00:07:28;96981.06;;;17.17;59.92
48390;BME280;34643;47.964;7.982;2023-03-20T00:12:29;96988.16;;;17.15;60.14
48390;BME280;34643;47.964;7.982;2023-03-20T00:17:30;96981.06;;;17.17;60.11
48390;BME280;34643;47.964;7.982;2023-03-20T00:22:30;96995.88;;;17.17;60.10
48390;BME280;34643;47.964;7.982;2023-03-20T00:27:31;96989.84;;;17.16;60.62
48390;BME280;34643;47.964;7.982;2023-03-20T00:32:32;96995.97;;;17.15;60.49
48390;BME280;34643;47.964;7.982;2023-03-20T00:37:32;96995.06;;;17.16;60.55
48390;BME280;34643;47.964;7.982;2023-03-20T00:42:32;97000.13;;;17.18;60.25
48390;BME280;34643;47.964;7.982;2023-03-20T00:47:32;97003.59;;;17.18;60.44
48390;BME280;34643;47.964;7.982;2023-03-20T00:52:36;96998.38;;;17.18;60.50
48390;BME280;34643;47.964;7.982;2023-03-20T00:57:44;97000.03;;;17.19;60.79
48390;BME280;34643;47.964;7.982;2023-03-20T01:02:45;97004.72;;;17.14;60.71
48390;BME280;34643;47.964;7.982;2023-03-20T01:07:45;97006.41;;;17.15;60.92
48390;BME280;34643;47.964;7.982;2023-03-20T01:12:46;96998.59;;;17.15;60.73
48390;BME280;34643;47.964;7.982;2023-03-20T01:17:47;96993.38;;;17.15;60.95
48390;BME280;34643;47.964;7.982;2023-03-20T01:22:48;96999.31;;;17.17;60.72
48390;BME280;34643;47.964;7.982;2023-03-20T01:27:49;97004.63;;;17.16;60.71
48390;BME280;34643;47.964;7.982;2023-03-20T01:32:50;97004.00;;;17.12;60.91
48390;BME280;34643;47.964;7.982;2023-03-20T01:37:51;97016.84;;;17.15;60.78
48390;BME280;34643;47.964;7.982;2023-03-20T01:42:52;97007.13;;;17.17;60.75
48390;BME280;34643;47.964;7.982;2023-03-20T01:47:53;97014.34;;;17.14;60.81
48390;BME280;34643;47.964;7.982;2023-03-20T01:53:16;97012.78;;;17.11;61.11
48390;BME280;34643;47.964;7.982;2023-03-20T01:58:22;97007.25;;;17.16;61.31
48390;BME280;34643;47.964;7.982;2023-03-20T02:03:25;97002.38;;;17.11;61.27
48390;BME280;34643;47.964;7.982;2023-03-20T02:08:32;97009.94;;;17.14;61.11
48390;BME280;34643;47.964;7.982;2023-03-20T02:13:37;97010.69;;;17.16;61.26
48390;BME280;34643;47.964;7.982;2023-03-20T02:18:39;97014.03;;;17.18;61.24
48390;BME280;34643;47.964;7.982;2023-03-20T02:29:14;97017.56;;;17.17;61.38
48390;BME280;34643;47.964;7.982;2023-03-20T02:49:47;97032.28;;;17.18;61.37
48390;BME280;34643;47.964;7.982;2023-03-20T03:00:09;97038.78;;;17.13;61.46
48390;BME280;34643;47.964;7.982;2023-03-20T03:05:23;97036.03;;;17.14;61.57
48390;BME280;34643;47.964;7.982;2023-03-20T03:10:40;97041.16;;;17.16;61.34
48390;BME280;34643;47.964;7.982;2023-03-20T03:15:47;97043.75;;;17.16;61.57
48390;BME280;34643;47.964;7.982;2023-03-20T03:20:49;97045.44;;;17.17;61.50
48390;BME280;34643;47.964;7.982;2023-03-20T03:25:51;97047.44;;;17.13;61.33
48390;BME280;34643;47.964;7.982;2023-03-20T03:30:52;97053.16;;;17.18;61.44
48390;BME280;34643;47.964;7.982;2023-03-20T03:36:05;97054.28;;;17.14;61.36
48390;BME280;34643;47.964;7.982;2023-03-20T03:41:17;97069.63;;;17.19;61.34
48390;BME280;34643;47.964;7.982;2023-03-20T03:46:29;97064.53;;;17.17;61.36
48390;BME280;34643;47.964;7.982;2023-03-20T03:51:34;97078.53;;;17.16;61.36
48390;BME280;34643;47.964;7.982;2023-03-20T03:56:43;97074.03;;;17.18;61.51
48390;BME280;34643;47.964;7.982;2023-03-20T04:01:46;97078.53;;;17.16;61.26
48390;BME280;34643;47.964;7.982;2023-03-20T04:06:46;97077.03;;;17.12;61.48
48390;BME280;34643;47.964;7.982;2023-03-20T04:11:48;97061.19;;;17.15;61.30
48390;BME280;34643;47.964;7.982;2023-03-20T04:16:48;97062.63;;;17.19;61.53
48390;BME280;34643;47.964;7.982;2023-03-20T04:21:49;97064.53;;;17.17;61.53
48390;BME280;34643;47.964;7.982;2023-03-20T04:26:50;97052.53;;;17.15;61.54
48390;BME280;34643;47.964;7.982;2023-03-20T04:31:51;97054.28;;;17.14;61.50
48390;BME280;34643;47.964;7.982;2023-03-20T04:37:11;97050.56;;;17.18;61.47
48390;BME280;34643;47.964;7.982;2023-03-20T04:42:36;97048.66;;;17.20;61.23
48390;BME280;34643;47.964;7.982;2023-03-20T04:47:39;97056.28;;;17.23;61.32
48390;BME280;34643;47.964;7.982;2023-03-20T04:52:40;97064.13;;;17.23;61.19
48390;BME280;34643;47.964;7.982;2023-03-20T04:57:40;97071.81;;;17.25;61.22
48390;BME280;34643;47.964;7.982;2023-03-20T05:02:44;97074.31;;;17.26;61.24
48390;BME280;34643;47.964;7.982;2023-03-20T05:07:44;97085.47;;;17.28;61.46
48390;BME280;34643;47.964;7.982;2023-03-20T05:12:50;97077.53;;;17.30;61.29
48390;BME280;34643;47.964;7.982;2023-03-20T05:18:20;97064.50;;;17.30;61.49
48390;BME280;34643;47.964;7.982;2023-03-20T05:23:38;97057.28;;;17.34;61.47
48390;BME280;34643;47.964;7.982;2023-03-20T05:28:54;97072.81;;;17.48;62.11
48390;BME280;34643;47.964;7.982;2023-03-20T05:34:30;97077.78;;;17.64;61.81
48390;BME280;34643;47.964;7.982;2023-03-20T05:39:49;97082.63;;;17.57;61.96
48390;BME280;34643;47.964;7.982;2023-03-20T05:45:00;97091.38;;;15.57;57.22
48390;BME280;34643;47.964;7.982;2023-03-20T05:50:23;97097.66;;;14.81;56.04
48390;BME280;34643;47.964;7.982;2023-03-20T05:55:40;97100.47;;;14.48;56.13
48390;BME280;34643;47.964;7.982;2023-03-20T06:01:02;97106.41;;;15.52;55.56
48390;BME280;34643;47.964;7.982;2023-03-20T06:06:30;97109.22;;;16.32;56.15
48390;BME280;34643;47.964;7.982;2023-03-20T06:11:31;97096.56;;;16.53;55.91
48390;BME280;34643;47.964;7.982;2023-03-20T06:16:32;97103.69;;;16.64;56.17
48390;BME280;34643;47.964;7.982;2023-03-20T06:21:32;97101.69;;;16.68;56.12
48390;BME280;34643;47.964;7.982;2023-03-20T06:26:33;97104.09;;;16.71;56.25
48390;BME280;34643;47.964;7.982;2023-03-20T06:31:37;97101.41;;;16.72;56.50
48390;BME280;34643;47.964;7.982;2023-03-20T06:36:40;97103.91;;;16.74;56.75
48390;BME280;34643;47.964;7.982;2023-03-20T06:41:47;97108.41;;;16.72;56.85
48390;BME280;34643;47.964;7.982;2023-03-20T06:46:48;97119.56;;;16.74;56.88
48390;BME280;34643;47.964;7.982;2023-03-20T06:51:48;97111.72;;;16.74;56.76
48390;BME280;34643;47.964;7.982;2023-03-20T06:56:56;97118.72;;;16.73;56.98
48390;BME280;34643;47.964;7.982;2023-03-20T07:01:57;97124.88;;;16.72;57.11
48390;BME280;34643;47.964;7.982;2023-03-20T07:06:58;97125.59;;;16.75;56.95
48390;BME280;34643;47.964;7.982;2023-03-20T07:11:59;97129.25;;;16.72;57.11
48390;BME280;34643;47.964;7.982;2023-03-20T07:16:59;97125.69;;;16.73;57.13
48390;BME280;34643;47.964;7.982;2023-03-20T07:22:00;97133.50;;;16.73;57.10
48390;BME280;34643;47.964;7.982;2023-03-20T07:27:04;97144.25;;;16.68;57.18
48390;BME280;34643;47.964;7.982;2023-03-20T07:32:06;97145.00;;;16.70;57.25
48390;BME280;34643;47.964;7.982;2023-03-20T07:37:10;97158.94;;;16.69;57.29
48390;BME280;34643;47.964;7.982;2023-03-20T07:42:12;97170.22;;;16.70;57.46
48390;BME280;34643;47.964;7.982;2023-03-20T07:47:24;97173.03;;;16.67;57.13
48390;BME280;34643;47.964;7.982;2023-03-20T07:52:24;97175.63;;;16.67;57.40
48390;BME280;34643;47.964;7.982;2023-03-20T07:57:26;97167.19;;;16.63;57.28
48390;BME280;34643;47.964;7.982;2023-03-20T08:02:27;97174.81;;;16.66;57.25
48390;BME280;34643;47.964;7.982;2023-03-20T08:07:28;97170.63;;;16.64;57.35
48390;BME280;34643;47.964;7.982;2023-03-20T08:12:29;97168.94;;;16.63;57.27
48390;BME280;34643;47.964;7.982;2023-03-20T08:17:29;97163.72;;;16.63;57.30
48390;BME280;34643;47.964;7.982;2023-03-20T08:22:29;97171.53;;;16.63;57.39
48390;BME280;34643;47.964;7.982;2023-03-20T08:27:30;97173.72;;;16.56;57.42
48390;BME280;34643;47.964;7.982;2023-03-20T08:32:30;97177.25;;;16.55;57.29
48390;BME280;34643;47.964;7.982;2023-03-20T08:37:30;97168.50;;;16.56;57.57
48390;BME280;34643;47.964;7.982;2023-03-20T08:42:31;97162.97;;;16.61;57.34
48390;BME280;34643;47.964;7.982;2023-03-20T08:47:31;97164.13;;;16.57;57.33
48390;BME280;34643;47.964;7.982;2023-03-20T08:52:32;97162.56;;;16.54;57.44
48390;BME280;34643;47.964;7.982;2023-03-20T08:57:32;97163.41;;;16.54;57.28
48390;BME280;34643;47.964;7.982;2023-03-20T09:02:32;97157.44;;;16.52;57.51
48390;BME280;34643;47.964;7.982;2023-03-20T09:07:33;97156.41;;;16.55;57.46
48390;BME280;34643;47.964;7.982;2023-03-20T09:12:33;97160.59;;;16.58;57.36
48390;BME280;34643;47.964;7.982;2023-03-20T09:17:34;97149.41;;;16.56;57.46
48390;BME280;34643;47.964;7.982;2023-03-20T09:22:35;97160.78;;;16.54;57.43
48390;BME280;34643;47.964;7.982;2023-03-20T09:27:35;97160.78;;;16.54;57.60
48390;BME280;34643;47.964;7.982;2023-03-20T09:32:35;97174.66;;;16.55;57.59
48390;BME280;34643;47.964;7.982;2023-03-20T09:37:36;97166.72;;;16.57;57.50
48390;BME280;34643;47.964;7.982;2023-03-20T09:42:56;97169.44;;;16.55;57.57
48390;BME280;34643;47.964;7.982;2023-03-20T09:48:02;97179.03;;;16.54;57.60
48390;BME280;34643;47.964;7.982;2023-03-20T09:58:25;97167.66;;;16.56;57.58
48390;BME280;34643;47.964;7.982;2023-03-20T10:03:28;97172.13;;;16.53;57.57
48390;BME280;34643;47.964;7.982;2023-03-20T10:08:32;97167.88;;;16.52;57.46
48390;BME280;34643;47.964;7.982;2023-03-20T10:18:36;97173.09;;;16.52;57.67
48390;BME280;34643;47.964;7.982;2023-03-20T10:28:50;97168.06;;;16.49;57.71
48390;BME280;34643;47.964;7.982;2023-03-20T10:34:17;97175.88;;;16.49;57.70
48390;BME280;34643;47.964;7.982;2023-03-20T10:44:27;97186.31;;;16.49;57.62
48390;BME280;34643;47.964;7.982;2023-03-20T10:49:38;97183.69;;;16.49;57.62
48390;BME280;34643;47.964;7.982;2023-03-20T10:54:41;97188.09;;;16.49;57.55
48390;BME280;34643;47.964;7.982;2023-03-20T10:59:44;97186.50;;;16.46;57.52
48390;BME280;34643;47.964;7.982;2023-03-20T11:04:47;97183.88;;;16.46;57.71
48390;BME280;34643;47.964;7.982;2023-03-20T11:15:19;97178.69;;;16.46;57.68
48390;BME280;34643;47.964;7.982;2023-03-20T11:20:19;97168.16;;;16.48;57.56
48390;BME280;34643;47.964;7.982;2023-03-20T11:25:24;97165.56;;;16.48;57.70
48390;BME280;34643;47.964;7.982;2023-03-20T11:30:27;97163.78;;;16.48;57.61
48390;BME280;34643;47.964;7.982;2023-03-20T11:35:29;97169.94;;;16.47;57.67
48390;BME280;34643;47.964;7.982;2023-03-20T11:40:33;97163.03;;;16.46;57.69
48390;BME280;34643;47.964;7.982;2023-03-20T11:45:35;97161.16;;;16.48;57.63
48390;BME280;34643;47.964;7.982;2023-03-20T11:50:37;97157.00;;;16.46;57.54
48390;BME280;34643;47.964;7.982;2023-03-20T11:55:41;97160.59;;;16.58;57.38
48390;BME280;34643;47.964;7.982;2023-03-20T12:00:46;97155.00;;;16.77;57.19
48390;BME280;34643;47.964;7.982;2023-03-20T12:05:49;97158.13;;;16.82;56.84
48390;BME280;34643;47.964;7.982;2023-03-20T12:10:59;97153.50;;;16.87;56.91
48390;BME280;34643;47.964;7.982;2023-03-20T12:16:06;97144.84;;;16.86;56.87
48390;BME280;34643;47.964;7.982;2023-03-20T12:21:17;97138.19;;;16.95;56.98
48390;BME280;34643;47.964;7.982;2023-03-20T12:26:20;97131.81;;;16.99;56.77
48390;BME280;34643;47.964;7.982;2023-03-20T12:31:43;97126.59;;;16.99;56.97
48390;BME280;34643;47.964;7.982;2023-03-20T12:36:46;97122.31;;;16.98;56.98
48390;BME280;34643;47.964;7.982;2023-03-20T12:52:22;97113.56;;;16.99;57.35
48390;BME280;34643;47.964;7.982;2023-03-20T12:57:46;97103.97;;;17.00;57.27
48390;BME280;34643;47.964;7.982;2023-03-20T13:02:51;97095.41;;;16.98;57.23
48390;BME280;34643;47.964;7.982;2023-03-20T13:08:10;97090.00;;;17.01;57.27
48390;BME280;34643;47.964;7.982;2023-03-20T13:18:21;97081.63;;;16.96;57.30
48390;BME280;34643;47.964;7.982;2023-03-20T13:28:25;97062.66;;;16.94;57.30
48390;BME280;34643;47.964;7.982;2023-03-20T13:38:32;97048.28;;;16.88;57.39
48390;BME280;34643;47.964;7.982;2023-03-20T13:43:42;97049.72;;;16.92;57.44
48390;BME280;34643;47.964;7.982;2023-03-20T13:48:44;97049.81;;;16.90;57.08
48390;BME280;34643;47.964;7.982;2023-03-20T13:58:56;97052.63;;;16.87;57.42
48390;BME280;34643;47.964;7.982;2023-03-20T14:04:00;97049.94;;;16.89;57.31
48390;BME280;34643;47.964;7.982;2023-03-20T14:09:01;97044.09;;;16.85;57.23
48390;BME280;34643;47.964;7.982;2023-03-20T14:14:11;97046.28;;;16.91;57.38
48390;BME280;34643;47.964;7.982;2023-03-20T14:19:17;97044.06;;;16.98;56.99
48390;BME280;34643;47.964;7.982;2023-03-20T14:24:19;97043.06;;;17.01;57.05
48390;BME280;34643;47.964;7.982;2023-03-20T14:34:21;97044.94;;;16.99;57.05
48390;BME280;34643;47.964;7.982;2023-03-20T14:55:26;97026.16;;;16.94;57.30
48390;BME280;34643;47.964;7.982;2023-03-20T15:00:28;97031.91;;;16.99;57.30
48390;BME280;34643;47.964;7.982;2023-03-20T15:05:32;97029.06;;;16.89;57.23
48390;BME280;34643;47.964;7.982;2023-03-20T15:10:34;97026.47;;;16.89;57.45
48390;BME280;34643;47.964;7.982;2023-03-20T15:15:36;97021.97;;;16.91;57.33
48390;BME280;34643;47.964;7.982;2023-03-20T15:20:36;97023.34;;;16.84;57.55
48390;BME280;34643;47.964;7.982;2023-03-20T15:25:37;97015.59;;;16.82;57.33
48390;BME280;34643;47.964;7.982;2023-03-20T15:30:38;97016.53;;;16.81;57.56
48390;BME280;34643;47.964;7.982;2023-03-20T15:35:39;97023.63;;;16.79;57.60
48390;BME280;34643;47.964;7.982;2023-03-20T15:40:39;97027.78;;;16.82;57.52
48390;BME280;34643;47.964;7.982;2023-03-20T15:45:40;97020.78;;;16.82;57.32
48390;BME280;34643;47.964;7.982;2023-03-20T15:50:42;97012.16;;;16.82;57.50
48390;BME280;34643;47.964;7.982;2023-03-20T15:55:52;97007.75;;;16.82;57.16
48390;BME280;34643;47.964;7.982;2023-03-20T16:00:54;97006.13;;;16.81;57.41
48390;BME280;34643;47.964;7.982;2023-03-20T16:05:57;97005.50;;;16.78;57.29
48390;BME280;34643;47.964;7.982;2023-03-20T16:10:58;97004.88;;;16.74;57.40
48390;BME280;34643;47.964;7.982;2023-03-20T16:16:00;96992.75;;;16.73;57.34
48390;BME280;34643;47.964;7.982;2023-03-20T16:21:03;96993.72;;;16.72;57.47
48390;BME280;34643;47.964;7.982;2023-03-20T16:26:05;96983.38;;;16.70;57.37
48390;BME280;34643;47.964;7.982;2023-03-20T16:31:17;96979.00;;;16.71;57.52
48390;BME280;34643;47.964;7.982;2023-03-20T16:36:20;96985.03;;;16.71;57.30
48390;BME280;34643;47.964;7.982;2023-03-20T16:41:28;96981.41;;;16.74;57.32
48390;BME280;34643;47.964;7.982;2023-03-20T16:46:29;96979.09;;;16.69;57.40
48390;BME280;34643;47.964;7.982;2023-03-20T16:51:29;96986.19;;;16.67;57.56
48390;BME280;34643;47.964;7.982;2023-03-20T16:56:34;96979.19;;;16.68;57.34
48390;BME280;34643;47.964;7.982;2023-03-20T17:01:39;96986.28;;;16.66;57.32
48390;BME280;34643;47.964;7.982;2023-03-20T17:06:43;96985.47;;;16.65;57.27
48390;BME280;34643;47.964;7.982;2023-03-20T17:11:47;96977.75;;;16.64;57.48
48390;BME280;34643;47.964;7.982;2023-03-20T17:16:50;96979.53;;;16.63;57.42
48390;BME280;34643;47.964;7.982;2023-03-20T17:21:50;96979.63;;;16.62;57.29
48390;BME280;34643;47.964;7.982;2023-03-20T17:26:52;96981.63;;;16.58;57.45
48390;BME280;34643;47.964;7.982;2023-03-20T17:31:52;96966.91;;;16.57;57.19
48390;BME280;34643;47.964;7.982;2023-03-20T17:36:53;96976.50;;;16.57;57.18
48390;BME280;34643;47.964;7.982;2023-03-20T17:41:53;96984.31;;;16.57;57.33
48390;BME280;34643;47.964;7.982;2023-03-20T17:46:53;96986.19;;;16.54;57.20
48390;BME280;34643;47.964;7.982;2023-03-20T17:51:54;96974.09;;;16.53;57.41
48390;BME280;34643;47.964;7.982;2023-03-20T17:56:55;96978.38;;;16.54;57.14
48390;BME280;34643;47.964;7.982;2023-03-20T18:01:55;96983.88;;;16.63;56.88
48390;BME280;34643;47.964;7.982;2023-03-20T18:06:56;96989.63;;;16.68;56.93
48390;BME280;34643;47.964;7.982;2023-03-20T18:11:56;97004.34;;;16.69;57.18
48390;BME280;34643;47.964;7.982;2023-03-20T18:16:57;97008.41;;;16.73;57.05
48390;BME280;34643;47.964;7.982;2023-03-20T18:21:57;97003.81;;;16.77;57.02
48390;BME280;34643;47.964;7.982;2023-03-20T18:26:58;97014.03;;;16.80;57.06
48390;BME280;34643;47.964;7.982;2023-03-20T18:31:59;97026.97;;;16.81;57.20
48390;BME280;34643;47.964;7.982;2023-03-20T18:36:59;97025.00;;;16.85;57.09
48390;BME280;34643;47.964;7.982;2023-03-20T18:42:00;97028.34;;;16.87;57.29
48390;BME280;34643;47.964;7.982;2023-03-20T18:47:00;97019.59;;;16.88;57.25
48390;BME280;34643;47.964;7.982;2023-03-20T18:52:00;97033.03;;;16.95;57.31
48390;BME280;34643;47.964;7.982;2023-03-20T18:57:02;97032.94;;;16.96;57.22
48390;BME280;34643;47.964;7.982;2023-03-20T19:02:03;97024.25;;;17.08;57.52
48390;BME280;34643;47.964;7.982;2023-03-20T19:07:04;97023.94;;;17.13;58.14
48390;BME280;34643;47.964;7.982;2023-03-20T19:12:04;97021.28;;;17.39;58.00
48390;BME280;34643;47.964;7.982;2023-03-20T19:17:05;97018.72;;;17.26;59.04
48390;BME280;34643;47.964;7.982;2023-03-20T19:22:05;97010.66;;;17.29;60.04
48390;BME280;34643;47.964;7.982;2023-03-20T19:27:07;97008.16;;;17.27;60.05
48390;BME280;34643;47.964;7.982;2023-03-20T19:32:07;97004.72;;;17.27;60.51
48390;BME280;34643;47.964;7.982;2023-03-20T19:37:09;97007.31;;;17.40;60.66
48390;BME280;34643;47.964;7.982;2023-03-20T19:42:11;96997.69;;;17.40;60.97
48390;BME280;34643;47.964;7.982;2023-03-20T19:47:11;97005.41;;;17.42;61.32
48390;BME280;34643;47.964;7.982;2023-03-20T19:52:15;97002.59;;;17.45;60.93
48390;BME280;34643;47.964;7.982;2023-03-20T19:57:19;97000.09;;;17.43;61.42
48390;BME280;34643;47.964;7.982;2023-03-20T20:02:19;97002.50;;;17.34;61.39
48390;BME280;34643;47.964;7.982;2023-03-20T20:07:19;97008.56;;;17.34;61.62
48390;BME280;34643;47.964;7.982;2023-03-20T20:12:20;97002.75;;;17.31;61.46
48390;BME280;34643;47.964;7.982;2023-03-20T20:17:20;97000.25;;;17.29;61.64
48390;BME280;34643;47.964;7.982;2023-03-20T20:22:20;96999.28;;;17.30;61.55
48390;BME280;34643;47.964;7.982;2023-03-20T20:27:20;97000.84;;;17.33;61.64
48390;BME280;34643;47.964;7.982;2023-03-20T20:32:22;96996.16;;;17.38;61.33
48390;BME280;34643;47.964;7.982;2023-03-20T20:37:22;97001.38;;;17.38;61.48
48390;BME280;34643;47.964;7.982;2023-03-20T20:42:23;96991.84;;;17.37;61.31
48390;BME280;34643;47.964;7.982;2023-03-20T20:47:23;96994.88;;;17.43;61.27
48390;BME280;34643;47.964;7.982;2023-03-20T20:52:23;96994.25;;;17.40;61.58
48390;BME280;34643;47.964;7.982;2023-03-20T20:57:24;96992.47;;;17.40;61.48
48390;BME280;34643;47.964;7.982;2023-03-20T21:02:28;96994.16;;;17.41;61.40
48390;BME280;34643;47.964;7.982;2023-03-20T21:07:29;96999.25;;;17.43;61.60
48390;BME280;34643;47.964;7.982;2023-03-20T21:12:30;97007.09;;;17.43;61.40
48390;BME280;34643;47.964;7.982;2023-03-20T21:17:30;97009.19;;;17.38;61.87
48390;BME280;34643;47.964;7.982;2023-03-20T21:22:30;97005.63;;;17.39;61.93
48390;BME280;34643;47.964;7.982;2023-03-20T21:27:33;96998.84;;;17.36;62.11
48390;BME280;34643;47.964;7.982;2023-03-20T21:32:34;96999.59;;;17.38;61.94
48390;BME280;34643;47.964;7.982;2023-03-20T21:37:36;96998.50;;;17.41;61.71
48390;BME280;34643;47.964;7.982;2023-03-20T21:42:36;96994.91;;;17.31;62.25
48390;BME280;34643;47.964;7.982;2023-03-20T21:47:36;97000.25;;;17.29;62.25
48390;BME280;34643;47.964;7.982;2023-03-20T21:52:37;97000.34;;;17.27;62.22
48390;BME280;34643;47.964;7.982;2023-03-20T21:57:37;97005.56;;;17.27;62.27
48390;BME280;34643;47.964;7.982;2023-03-20T22:02:37;96996.16;;;17.25;62.05
48390;BME280;34643;47.964;7.982;2023-03-20T22:07:38;96995.22;;;17.26;62.10
48390;BME280;34643;47.964;7.982;2023-03-20T22:12:39;96981.56;;;17.22;62.32
48390;BME280;34643;47.964;7.982;2023-03-20T22:17:40;96982.50;;;17.21;62.40
48390;BME280;34643;47.964;7.982;2023-03-20T22:22:40;96986.06;;;17.20;62.29
48390;BME280;34643;47.964;7.982;2023-03-20T22:27:40;96975.00;;;17.17;62.51
48390;BME280;34643;47.964;7.982;2023-03-20T22:32:41;96976.56;;;17.19;62.38
48390;BME280;34643;47.964;7.982;2023-03-20T22:37:41;96973.94;;;17.19;62.74
48390;BME280;34643;47.964;7.982;2023-03-20T22:42:42;96964.47;;;17.18;62.47
48390;BME280;34643;47.964;7.982;2023-03-20T22:47:42;96955.78;;;17.18;62.54
48390;BME280;34643;47.964;7.982;2023-03-20T22:52:42;96958.44;;;17.42;62.86
48390;BME280;34643;47.964;7.982;2023-03-20T22:57:43;96959.63;;;17.38;62.95
48390;BME280;34643;47.964;7.982;2023-03-20T23:02:43;96957.53;;;17.30;63.11
48390;BME280;34643;47.964;7.982;2023-03-20T23:07:43;96962.03;;;17.28;63.30
48390;BME280;34643;47.964;7.982;2023-03-20T23:12:43;96950.06;;;17.25;63.03
48390;BME280;34643;47.964;7.982;2023-03-20T23:17:44;96943.25;;;17.23;63.26
48390;BME280;34643;47.964;7.982;2023-03-20T23:22:45;96940.75;;;17.21;63.38
48390;BME280;34643;47.964;7.982;2023-03-20T23:27:45;96939.72;;;17.24;63.62
48390;BME280;34643;47.964;7.982;2023-03-20T23:32:45;96939.72;;;17.24;63.74
48390;BME280;34643;47.964;7.982;2023-03-20T23:37:46;96932.94;;;17.21;63.96
48390;BME280;34643;47.964;7.982;2023-03-20T23:42:46;96924.28;;;17.21;63.69
48390;BME280;34643;47.964;7.982;2023-03-20T23:47:47;96914.69;;;17.21;63.57
48390;BME280;34643;47.964;7.982;2023-03-20T23:52:48;96920.84;;;17.20;63.60
48390;BME280;34643;47.964;7.982;2023-03-20T23:57:48;96919.06;;;17.21;64.07
